Campbell AAF (Fort Campbell) Air Field
KHOP : now visible

Airfield :











YOU CAN JOIN US ON...

 
LOGIN :

Register | Disclaimer

   EN    FR    IT 

 









Legend :    VFR   Marginal VFR   IFR   Intensive IFR   Very Intensive IFR
Visi :
Ceiling :
>= 8 km
>= 3000ft
5 to 8 km
1000 to 3000 ft
1500m to 5 km
500 to 1000 ft
800 to 1500m
200 to 500 ft
< 800m
< 200 ft
Symbols :   Thunderstorms  Fog  Heavy snow  Heavy precipitations  Wind > 20 kt






- Airport Elevation : 573 ft


KHOP - Campbell AAF (Fort Campbell) Air Field

CURRENT METAR :
  • 280255Z AUTO 32004KT 10SM SCT012 OVC021 08/08 A2985 RMK AO2 CIG 010V021 SLP111 60001 T00790078 52022

EXPIRED METARs :
  • 280225Z 33005KT 10SM BKN010 OVC014 08/08 A2985 RMK AO2A CIG 010V014 SLP111
  • 280155Z 31006KT 10SM SCT005 BKN013 OVC021 08/08 A2984 RMK AO2A DZB01E44 CIG 005V013 SLP107 P0001 T00830082
  • 272213Z 23009KT 9SM -DZ OVC015 10/10 A2973 RMK AO2A DZB2158 SLP070
  • 280144Z 30008KT 9SM BKN005 BKN009 OVC021 08/08 A2984 RMK AO2A DZB01E44 SLP107
  • 280117Z 28010KT 10SM -DZ FEW003 BKN009 OVC019 09/09 A2982 RMK AO2A DZB01 CIG 009V019 SLP101
  • 280049Z 26007KT 10SM BKN013 OVC021 09/09 A2981 RMK AO2A DZB39E49 SLP097
  • 280101Z 27006KT 10SM -DZ SCT013 OVC021 09/09 A2981 RMK AO2A DZB01 SLP097

TAF TAF KHOP
Valid from the 28 at 00:00 until the 29 at 06:00 UTC


280000Z 2800/2906 29005KT 8000 -DZ SCT004 BKN015 510006 QNH2981INS
TEMPO 2800/2802 BKN004 OVC015
BECMG 2801/2802 29005KT 9999 NSW SCT010 BKN020 QNH2987INS
BECMG 2808/2809 26003KT 6000 BR OVC010 QNH2995INS
BECMG 2811/2812 21005KT 9999 NSW BKN012 QNH2998INS
BECMG 2815/2816 22010G15KT 9999 BKN015 QNH3001INS
BECMG 2821/2822 18005KT 9999 OVC020 QNH3002INS TX11/2821Z TN07/2812Z
KZME FIR / North America



MET'MAP, your aeronautical weather chart ! - Copyright ORBIFLY December 2007 - Disclaimer

ORBIFLY MET'MAP TEAM :

Programming & Development : Alexandra Zaïnal
Original concept : Baudouin d'Aumeries
Technical & hardware support : Manuel Goepfert
Assistance : Marc-Olivier Méhu




SOURCES & CREDITS :

   NOAA       Earth
Advisory